createdAt,value
2016-11-29T00:00:11.881Z,24.37
2016-11-29T00:00:39.563Z,24.43
2016-11-29T00:01:07.372Z,24.46
2016-11-29T00:01:35.291Z,24.46
2016-11-29T00:02:02.992Z,24.47
2016-11-29T00:02:30.806Z,24.43
2016-11-29T00:02:58.498Z,24.41
2016-11-29T00:03:26.227Z,24.44
2016-11-29T00:03:53.940Z,24.38
2016-11-29T00:04:21.662Z,24.34
2016-11-29T00:04:49.326Z,24.41
2016-11-29T00:05:17.044Z,24.4
2016-11-29T00:05:44.828Z,24.36
2016-11-29T00:06:12.548Z,24.37
2016-11-29T00:06:40.258Z,24.36
2016-11-29T00:07:07.966Z,24.34
2016-11-29T00:07:35.656Z,24.31
2016-11-29T00:08:03.340Z,24.31
2016-11-29T00:08:31.015Z,24.47
2016-11-29T00:08:58.784Z,24.44
2016-11-29T00:09:26.497Z,24.38
2016-11-29T00:09:54.175Z,24.34
2016-11-29T00:10:22.016Z,24.37
2016-11-29T00:10:49.819Z,24.46
2016-11-29T00:11:17.511Z,24.44
2016-11-29T00:11:45.179Z,24.46
2016-11-29T00:12:13.052Z,24.46
2016-11-29T00:12:40.750Z,24.41
2016-11-29T00:13:08.463Z,24.37
2016-11-29T00:13:36.158Z,24.44
2016-11-29T00:14:03.877Z,24.43
2016-11-29T00:14:31.591Z,24.41
2016-11-29T00:14:59.308Z,24.4
2016-11-29T00:15:27.018Z,24.43
2016-11-29T00:15:54.822Z,24.37
2016-11-29T00:16:22.506Z,24.32
2016-11-29T00:16:50.187Z,24.38
2016-11-29T00:17:17.858Z,24.41
2016-11-29T00:17:45.589Z,24.43
2016-11-29T00:18:13.265Z,24.36
2016-11-29T00:18:40.945Z,24.32
2016-11-29T00:19:08.638Z,24.37
2016-11-29T00:19:36.339Z,24.29
2016-11-29T00:20:04.025Z,24.29
2016-11-29T00:20:31.732Z,24.29
2016-11-29T00:20:59.403Z,24.31
2016-11-29T00:21:27.101Z,24.29
2016-11-29T00:21:54.927Z,24.26
2016-11-29T00:22:22.649Z,24.26
2016-11-29T00:22:50.362Z,24.32
2016-11-29T00:23:18.060Z,24.18
2016-11-29T00:23:48.426Z,24.24
2016-11-29T00:24:16.212Z,24.21
2016-11-29T00:24:43.907Z,24.24
2016-11-29T00:25:11.585Z,24.19
2016-11-29T00:25:39.346Z,24.22
2016-11-29T00:26:07.065Z,24.21
2016-11-29T00:26:34.780Z,24.21
2016-11-29T00:27:02.499Z,24.16
2016-11-29T00:27:30.274Z,24.18
2016-11-29T00:27:57.932Z,24.24
2016-11-29T00:28:25.622Z,24.24
2016-11-29T00:28:53.324Z,24.19
2016-11-29T00:29:21.010Z,24.22
2016-11-29T00:29:48.823Z,24.21
2016-11-29T00:30:16.514Z,24.21
2016-11-29T00:30:44.231Z,24.22
2016-11-29T00:31:11.918Z,24.26
2016-11-29T00:31:39.616Z,24.25
2016-11-29T00:32:07.287Z,24.18
2016-11-29T00:32:34.990Z,24.22
2016-11-29T00:33:02.765Z,24.28
2016-11-29T00:33:30.462Z,24.31
2016-11-29T00:33:58.141Z,24.29
2016-11-29T00:34:25.826Z,24.28
2016-11-29T00:34:53.525Z,24.4
2016-11-29T00:35:21.219Z,24.31
2016-11-29T00:35:48.919Z,24.26
2016-11-29T00:36:16.609Z,24.29
2016-11-29T00:36:44.271Z,24.28
2016-11-29T00:37:11.988Z,24.38
2016-11-29T00:37:39.701Z,24.36
2016-11-29T00:38:07.439Z,24.29
2016-11-29T00:38:35.172Z,24.25
2016-11-29T00:39:02.871Z,24.28
2016-11-29T00:39:30.564Z,24.29
2016-11-29T00:39:58.266Z,24.28
2016-11-29T00:40:25.979Z,24.25
2016-11-29T00:40:53.679Z,24.25
2016-11-29T00:41:21.381Z,24.22
2016-11-29T00:41:49.078Z,24.26
2016-11-29T00:42:16.776Z,24.18
2016-11-29T00:42:44.449Z,24.26
2016-11-29T00:43:12.192Z,24.26
2016-11-29T00:43:39.988Z,24.25
2016-11-29T00:44:07.782Z,24.25
2016-11-29T00:44:35.468Z,24.22
2016-11-29T00:45:03.177Z,24.18
2016-11-29T00:45:30.885Z,24.28
2016-11-29T00:45:58.581Z,24.22
2016-11-29T00:46:26.274Z,24.21
2016-11-29T00:46:53.965Z,24.22
2016-11-29T00:47:21.663Z,24.24
2016-11-29T00:47:49.358Z,24.21
2016-11-29T00:48:17.159Z,24.22
2016-11-29T00:48:44.845Z,24.18
2016-11-29T00:49:12.568Z,24.19
2016-11-29T00:49:40.274Z,24.22
2016-11-29T00:50:07.992Z,24.16
2016-11-29T00:50:35.708Z,24.18
2016-11-29T00:51:03.412Z,24.16
2016-11-29T00:51:31.118Z,24.21
2016-11-29T00:51:58.869Z,24.16
2016-11-29T00:52:26.592Z,24.09
2016-11-29T00:52:54.281Z,24.16
2016-11-29T00:53:21.968Z,24.11
2016-11-29T00:53:49.649Z,24.16
2016-11-29T00:54:17.447Z,24.18
2016-11-29T00:54:45.115Z,24.18
2016-11-29T00:55:12.819Z,24.18
2016-11-29T00:55:40.607Z,24.19
2016-11-29T00:56:08.287Z,24.18
2016-11-29T00:56:35.952Z,24.19
2016-11-29T00:57:03.641Z,24.04
2016-11-29T00:57:31.325Z,24.04
2016-11-29T00:57:59.002Z,24.18
2016-11-29T00:58:26.700Z,24.11
2016-11-29T00:58:54.494Z,24.11
2016-11-29T00:59:22.197Z,24.18
2016-11-29T00:59:49.901Z,24.18
2016-11-29T01:00:17.596Z,24.07
2016-11-29T01:00:45.303Z,24.06
2016-11-29T01:01:12.976Z,24.18
2016-11-29T01:01:40.703Z,24.06
2016-11-29T01:02:08.402Z,24.16
2016-11-29T01:02:36.084Z,24.16
2016-11-29T01:03:03.846Z,24.21
2016-11-29T01:03:31.559Z,24.18
2016-11-29T01:03:59.257Z,24.14
2016-11-29T01:04:26.924Z,24.19
2016-11-29T01:04:54.613Z,24.18
2016-11-29T01:05:22.301Z,24.19
2016-11-29T01:05:49.993Z,24.24
2016-11-29T01:06:17.750Z,24.24
2016-11-29T01:06:45.449Z,24.21
2016-11-29T01:07:13.163Z,24.24
2016-11-29T01:07:40.836Z,24.21
2016-11-29T01:08:08.557Z,24.25
2016-11-29T01:08:36.251Z,24.25
2016-11-29T01:09:03.994Z,24.32
2016-11-29T01:09:31.708Z,24.29
2016-11-29T01:09:59.394Z,24.26
2016-11-29T01:10:27.072Z,24.31
2016-11-29T01:10:54.870Z,24.25
2016-11-29T01:11:22.556Z,24.31
2016-11-29T01:11:50.373Z,24.25
2016-11-29T01:12:18.207Z,24.19
2016-11-29T01:12:45.907Z,24.21
2016-11-29T01:13:13.604Z,24.19
2016-11-29T01:13:41.409Z,24.28
2016-11-29T01:14:09.299Z,24.22
2016-11-29T01:14:37.124Z,24.21
2016-11-29T01:15:06.430Z,24.25
2016-11-29T01:15:34.565Z,24.26
2016-11-29T01:16:03.178Z,24.21
2016-11-29T01:16:30.975Z,24.25
2016-11-29T01:16:59.199Z,24.26
2016-11-29T01:17:26.868Z,24.32
2016-11-29T01:17:54.579Z,24.29
2016-11-29T01:18:22.287Z,24.31
2016-11-29T01:18:49.988Z,24.31
2016-11-29T01:19:17.660Z,24.31
2016-11-29T01:19:45.348Z,24.4
2016-11-29T01:20:13.048Z,24.38
2016-11-29T01:20:40.846Z,24.34
2016-11-29T01:21:08.533Z,24.38
2016-11-29T01:21:36.215Z,24.36
2016-11-29T01:22:03.993Z,24.4
2016-11-29T01:22:31.669Z,24.37
2016-11-29T01:22:59.384Z,24.41
2016-11-29T01:23:27.065Z,24.46
2016-11-29T01:23:54.961Z,24.38
2016-11-29T01:24:22.639Z,24.46
2016-11-29T01:24:50.343Z,24.4
2016-11-29T01:25:18.035Z,24.44
2016-11-29T01:25:45.719Z,24.55
2016-11-29T01:26:13.392Z,24.58
2016-11-29T01:26:41.069Z,24.56
2016-11-29T01:27:08.750Z,24.53
2016-11-29T01:27:36.425Z,24.58
2016-11-29T01:28:04.147Z,24.61
2016-11-29T01:28:31.954Z,24.58
2016-11-29T01:28:59.769Z,24.59
2016-11-29T01:29:27.463Z,24.62
2016-11-29T01:29:55.159Z,24.61
2016-11-29T01:30:22.869Z,24.63
2016-11-29T01:30:50.558Z,24.59
2016-11-29T01:31:18.262Z,24.65
2016-11-29T01:31:45.968Z,24.59
2016-11-29T01:32:13.686Z,24.69
2016-11-29T01:32:41.358Z,24.61
2016-11-29T01:33:09.152Z,24.58
2016-11-29T01:33:36.849Z,24.53
2016-11-29T01:34:04.657Z,24.56
2016-11-29T01:34:32.340Z,24.65
2016-11-29T01:35:00.031Z,24.59
2016-11-29T01:35:27.729Z,24.63
2016-11-29T01:35:55.422Z,24.59
2016-11-29T01:36:23.207Z,24.63
2016-11-29T01:36:50.902Z,24.58
2016-11-29T01:37:18.675Z,24.63
2016-11-29T01:37:46.391Z,24.59
2016-11-29T01:38:14.223Z,24.59
2016-11-29T01:38:41.941Z,24.65
2016-11-29T01:39:09.609Z,24.59
2016-11-29T01:39:37.301Z,24.62
2016-11-29T01:40:04.986Z,24.56
2016-11-29T01:40:32.698Z,24.59
2016-11-29T01:41:00.387Z,24.59
2016-11-29T01:41:28.113Z,24.58
2016-11-29T01:41:55.929Z,24.61
2016-11-29T01:42:23.708Z,24.61
2016-11-29T01:42:51.477Z,24.69
2016-11-29T01:43:19.164Z,24.69
2016-11-29T01:43:46.893Z,24.69
2016-11-29T01:44:14.564Z,24.69
2016-11-29T01:44:42.359Z,24.68
2016-11-29T01:45:10.023Z,24.65
2016-11-29T01:45:37.805Z,24.66
2016-11-29T01:46:05.528Z,24.69
2016-11-29T01:46:33.227Z,24.61
2016-11-29T01:47:00.955Z,24.63
2016-11-29T01:47:28.618Z,24.71
2016-11-29T01:47:56.331Z,24.75
2016-11-29T01:48:24.140Z,24.71
2016-11-29T01:48:51.837Z,24.75
2016-11-29T01:49:19.554Z,24.74
2016-11-29T01:49:47.221Z,24.71
2016-11-29T01:50:14.914Z,24.66
2016-11-29T01:50:42.608Z,24.65
2016-11-29T01:51:10.310Z,24.68
2016-11-29T01:51:38.106Z,24.62
2016-11-29T01:52:05.795Z,24.61
2016-11-29T01:52:33.572Z,24.63
2016-11-29T01:53:01.272Z,24.59
2016-11-29T01:53:28.964Z,24.58
2016-11-29T01:53:56.666Z,24.65
2016-11-29T01:54:24.412Z,24.58
2016-11-29T01:54:52.121Z,24.69
2016-11-29T01:55:19.808Z,24.59
2016-11-29T01:55:47.580Z,24.51
2016-11-29T01:56:15.263Z,24.51
2016-11-29T01:56:42.954Z,24.59
2016-11-29T01:57:10.708Z,24.55
2016-11-29T01:57:38.412Z,24.43
2016-11-29T01:58:06.104Z,24.46
2016-11-29T01:58:33.885Z,24.46
2016-11-29T01:59:01.656Z,24.47
2016-11-29T01:59:29.341Z,24.41
2016-11-29T01:59:57.157Z,24.46
2016-11-29T02:00:24.960Z,24.47
2016-11-29T02:00:52.651Z,24.43
2016-11-29T02:01:20.443Z,24.5
2016-11-29T02:01:48.228Z,24.47
2016-11-29T02:02:15.967Z,24.43
2016-11-29T02:02:43.641Z,24.44
2016-11-29T02:03:11.346Z,24.38
2016-11-29T02:03:39.074Z,24.44
2016-11-29T02:04:06.750Z,24.46
2016-11-29T02:04:34.430Z,24.4
2016-11-29T02:05:02.147Z,24.38
2016-11-29T02:05:29.839Z,24.51
2016-11-29T02:05:57.536Z,24.55
2016-11-29T02:06:25.227Z,24.5
2016-11-29T02:06:52.955Z,24.59
2016-11-29T02:07:20.647Z,24.63
2016-11-29T02:07:48.424Z,24.56
2016-11-29T02:08:16.149Z,24.58
2016-11-29T02:08:43.847Z,24.56
2016-11-29T02:09:11.557Z,24.55
2016-11-29T02:09:39.285Z,24.51
2016-11-29T02:10:07.088Z,24.55
2016-11-29T02:10:34.805Z,24.5
2016-11-29T02:11:02.521Z,24.56
2016-11-29T02:11:30.223Z,24.56
2016-11-29T02:11:57.958Z,24.56
2016-11-29T02:12:25.638Z,24.56
2016-11-29T02:12:53.433Z,24.53
2016-11-29T02:13:21.166Z,24.56
2016-11-29T02:13:48.954Z,24.55
2016-11-29T02:14:16.674Z,24.5
2016-11-29T02:14:44.399Z,24.61
2016-11-29T02:15:12.121Z,24.5
2016-11-29T02:15:39.805Z,24.58
2016-11-29T02:16:07.516Z,24.53
2016-11-29T02:16:35.201Z,24.5
2016-11-29T02:17:02.979Z,24.43
2016-11-29T02:17:30.652Z,24.41
2016-11-29T02:17:58.340Z,24.46
2016-11-29T02:18:26.026Z,24.43
2016-11-29T02:18:53.714Z,24.36
2016-11-29T02:19:21.408Z,24.43
2016-11-29T02:19:49.209Z,24.41
2016-11-29T02:20:17.001Z,24.44
2016-11-29T02:20:44.808Z,24.44
2016-11-29T02:21:12.576Z,24.48
2016-11-29T02:21:40.351Z,24.38
2016-11-29T02:22:08.043Z,24.38
2016-11-29T02:22:35.813Z,24.37
2016-11-29T02:23:03.500Z,24.4
2016-11-29T02:23:31.206Z,24.37
2016-11-29T02:23:58.886Z,24.44
2016-11-29T02:24:26.587Z,24.38
2016-11-29T02:24:54.273Z,24.43
2016-11-29T02:25:21.990Z,24.44
2016-11-29T02:25:49.679Z,24.44
2016-11-29T02:26:17.375Z,24.34
2016-11-29T02:26:45.062Z,24.4
2016-11-29T02:27:12.787Z,24.38
2016-11-29T02:27:40.477Z,24.4
2016-11-29T02:28:08.190Z,24.43
2016-11-29T02:28:35.879Z,24.38
2016-11-29T02:29:03.548Z,24.41
2016-11-29T02:29:31.357Z,24.4
2016-11-29T02:29:59.167Z,24.46
2016-11-29T02:30:26.861Z,24.47
2016-11-29T02:30:54.548Z,24.43
2016-11-29T02:31:22.256Z,24.43
2016-11-29T02:31:50.009Z,24.43
2016-11-29T02:32:17.731Z,24.43
2016-11-29T02:32:45.425Z,24.43
2016-11-29T02:33:13.117Z,24.43
2016-11-29T02:33:40.800Z,24.32
2016-11-29T02:34:08.517Z,24.34
2016-11-29T02:34:36.295Z,24.29
2016-11-29T02:35:03.981Z,24.29
2016-11-29T02:35:31.649Z,24.31
2016-11-29T02:35:59.376Z,24.24
2016-11-29T02:36:27.051Z,24.21
2016-11-29T02:36:54.826Z,24.25
2016-11-29T02:37:22.514Z,24.18
2016-11-29T02:37:50.189Z,24.24
2016-11-29T02:38:17.970Z,24.22
2016-11-29T02:38:45.625Z,24.29
2016-11-29T02:39:13.303Z,24.21
2016-11-29T02:39:40.981Z,24.24
2016-11-29T02:40:08.686Z,24.21
2016-11-29T02:40:36.478Z,24.18
2016-11-29T02:41:04.215Z,24.22
2016-11-29T02:41:32.107Z,24.24
2016-11-29T02:41:59.885Z,24.28
2016-11-29T02:42:27.596Z,24.31
2016-11-29T02:42:55.283Z,24.34
2016-11-29T02:43:22.976Z,24.31
2016-11-29T02:43:50.694Z,24.38
2016-11-29T02:44:18.404Z,24.31
2016-11-29T02:44:46.090Z,24.32
2016-11-29T02:45:13.777Z,24.34
2016-11-29T02:45:41.451Z,24.41
2016-11-29T02:46:09.130Z,24.32
2016-11-29T02:46:36.828Z,24.38
2016-11-29T02:47:04.537Z,24.28
2016-11-29T02:47:32.227Z,24.28
2016-11-29T02:47:59.991Z,24.26
2016-11-29T02:48:27.685Z,24.24
2016-11-29T02:48:55.464Z,24.24
2016-11-29T02:49:23.259Z,24.19
2016-11-29T02:49:51.074Z,24.16
2016-11-29T02:50:18.772Z,24.13
2016-11-29T02:50:46.571Z,24.09
2016-11-29T02:51:14.271Z,24.01
2016-11-29T02:51:41.965Z,24.01
2016-11-29T02:52:09.665Z,23.99
2016-11-29T02:52:37.347Z,24.03
2016-11-29T02:53:05.164Z,23.92
2016-11-29T02:53:32.858Z,23.89
2016-11-29T02:54:00.560Z,23.95
2016-11-29T02:54:28.269Z,23.92
2016-11-29T02:54:55.954Z,23.89
2016-11-29T02:55:23.719Z,24
2016-11-29T02:55:51.439Z,23.95
2016-11-29T02:56:19.229Z,23.92
2016-11-29T02:56:46.998Z,23.95
2016-11-29T02:57:14.687Z,23.89
2016-11-29T02:57:42.362Z,23.94
2016-11-29T02:58:10.036Z,23.94
2016-11-29T02:58:37.737Z,23.89
2016-11-29T02:59:05.531Z,23.99
2016-11-29T02:59:33.313Z,23.94
2016-11-29T03:00:01.013Z,24.03
2016-11-29T03:00:28.910Z,23.92
2016-11-29T03:00:56.689Z,23.94
2016-11-29T03:01:24.401Z,24.01
2016-11-29T03:01:52.072Z,23.96
2016-11-29T03:02:19.779Z,23.89
2016-11-29T03:02:47.472Z,23.91
2016-11-29T03:03:15.133Z,23.89
2016-11-29T03:03:42.810Z,23.92
2016-11-29T03:04:10.499Z,23.91
2016-11-29T03:04:38.264Z,23.99
2016-11-29T03:05:05.922Z,23.94
2016-11-29T03:05:33.609Z,23.92
2016-11-29T03:06:01.315Z,23.91
2016-11-29T03:06:29.043Z,23.86
2016-11-29T03:06:56.776Z,23.99
2016-11-29T03:07:24.453Z,23.99
2016-11-29T03:07:52.138Z,23.94
2016-11-29T03:08:19.849Z,23.91
2016-11-29T03:08:47.646Z,23.95
2016-11-29T03:09:15.367Z,23.96
2016-11-29T03:09:43.259Z,23.91
2016-11-29T03:10:10.938Z,23.92
2016-11-29T03:10:38.825Z,23.94
2016-11-29T03:11:06.537Z,23.89
2016-11-29T03:11:34.278Z,23.88
2016-11-29T03:12:01.981Z,23.91
2016-11-29T03:12:29.699Z,23.89
2016-11-29T03:12:57.407Z,23.89
2016-11-29T03:13:25.112Z,23.88
2016-11-29T03:13:52.806Z,23.84
2016-11-29T03:14:20.495Z,23.81
2016-11-29T03:14:48.242Z,23.84
2016-11-29T03:15:15.929Z,23.88
2016-11-29T03:15:43.642Z,23.85
2016-11-29T03:16:11.338Z,23.85
2016-11-29T03:16:39.036Z,23.85
2016-11-29T03:17:06.723Z,23.82
2016-11-29T03:17:34.426Z,23.92
2016-11-29T03:18:02.129Z,23.85
2016-11-29T03:18:29.807Z,23.79
2016-11-29T03:18:57.515Z,23.76
2016-11-29T03:19:25.232Z,23.77
2016-11-29T03:19:52.916Z,23.77
2016-11-29T03:20:20.618Z,23.67
2016-11-29T03:20:48.325Z,23.88
2016-11-29T03:21:16.038Z,23.81
2016-11-29T03:21:43.829Z,23.79
2016-11-29T03:22:11.622Z,23.76
2016-11-29T03:22:39.337Z,23.73
2016-11-29T03:23:07.057Z,23.76
2016-11-29T03:23:34.755Z,23.77
2016-11-29T03:24:02.491Z,23.81
2016-11-29T03:24:30.168Z,23.74
2016-11-29T03:24:57.861Z,23.7
2016-11-29T03:25:25.571Z,23.73
2016-11-29T03:25:53.367Z,23.7
2016-11-29T03:26:21.242Z,23.73
2016-11-29T03:26:48.931Z,23.7
2016-11-29T03:27:16.637Z,23.67
2016-11-29T03:27:44.327Z,23.74
2016-11-29T03:28:12.039Z,23.66
2016-11-29T03:28:39.734Z,23.73
2016-11-29T03:29:07.446Z,23.71
2016-11-29T03:29:35.133Z,23.71
2016-11-29T03:30:02.844Z,23.63
2016-11-29T03:30:30.618Z,23.66
2016-11-29T03:30:58.308Z,23.71
2016-11-29T03:31:25.992Z,23.71
2016-11-29T03:31:53.763Z,23.73
2016-11-29T03:32:21.486Z,23.67
2016-11-29T03:32:49.190Z,23.62
2016-11-29T03:33:16.894Z,23.59
2016-11-29T03:33:44.604Z,23.59
2016-11-29T03:34:12.309Z,23.56
2016-11-29T03:34:40.090Z,23.59
2016-11-29T03:35:07.811Z,23.63
2016-11-29T03:35:35.524Z,23.64
2016-11-29T03:36:03.259Z,23.59
2016-11-29T03:36:30.938Z,23.63
2016-11-29T03:36:58.616Z,23.63
2016-11-29T03:37:26.304Z,23.64
2016-11-29T03:37:54.088Z,23.62
2016-11-29T03:38:21.787Z,23.64
2016-11-29T03:38:49.468Z,23.7
2016-11-29T03:39:17.151Z,23.66
2016-11-29T03:39:44.852Z,23.7
2016-11-29T03:40:12.600Z,23.66
2016-11-29T03:40:40.293Z,23.56
2016-11-29T03:41:07.985Z,23.67
2016-11-29T03:41:35.674Z,23.58
2016-11-29T03:42:03.371Z,23.63
2016-11-29T03:42:31.056Z,23.62
2016-11-29T03:42:58.798Z,23.59
2016-11-29T03:43:26.493Z,23.56
2016-11-29T03:43:54.159Z,23.63
2016-11-29T03:44:21.979Z,23.63
2016-11-29T03:44:49.667Z,23.73
2016-11-29T03:45:17.456Z,23.71
2016-11-29T03:45:45.175Z,23.71
2016-11-29T03:46:12.868Z,23.73
2016-11-29T03:46:40.556Z,23.73
2016-11-29T03:47:08.240Z,23.77
2016-11-29T03:47:35.922Z,23.67
2016-11-29T03:48:03.589Z,23.67
2016-11-29T03:48:31.279Z,23.69
2016-11-29T03:48:58.974Z,23.66
2016-11-29T03:49:26.688Z,23.66
2016-11-29T03:49:54.376Z,23.63
2016-11-29T03:50:22.068Z,23.69
2016-11-29T03:50:49.779Z,23.62
2016-11-29T03:51:17.506Z,23.58
2016-11-29T03:51:45.210Z,23.58
2016-11-29T03:52:12.918Z,23.52
2016-11-29T03:52:40.718Z,23.52
2016-11-29T03:53:08.422Z,23.52
2016-11-29T03:53:36.118Z,23.55
2016-11-29T03:54:03.823Z,23.51
2016-11-29T03:54:31.513Z,23.48
2016-11-29T03:54:59.191Z,23.51
2016-11-29T03:55:26.885Z,23.49
2016-11-29T03:55:54.568Z,23.49
2016-11-29T03:56:22.237Z,23.54
2016-11-29T03:56:49.926Z,23.56
2016-11-29T03:57:17.644Z,23.59
2016-11-29T03:57:45.332Z,23.64
2016-11-29T03:58:13.041Z,23.59
2016-11-29T03:58:40.814Z,23.63
2016-11-29T03:59:08.537Z,23.69
2016-11-29T03:59:36.228Z,23.64
2016-11-29T04:00:03.923Z,23.66
2016-11-29T04:00:31.637Z,23.66
2016-11-29T04:00:59.335Z,23.66
2016-11-29T04:01:27.038Z,23.58
2016-11-29T04:01:54.716Z,23.7
2016-11-29T04:02:22.494Z,23.64
2016-11-29T04:02:50.200Z,23.59
2016-11-29T04:03:17.898Z,23.7
2016-11-29T04:03:45.577Z,23.59
2016-11-29T04:04:13.274Z,23.66
2016-11-29T04:04:40.964Z,23.64
2016-11-29T04:05:08.655Z,23.63
2016-11-29T04:05:36.348Z,23.62
2016-11-29T04:06:04.034Z,23.69
2016-11-29T04:06:31.707Z,23.64
2016-11-29T04:06:59.489Z,23.62
2016-11-29T04:07:27.180Z,23.62
2016-11-29T04:07:54.867Z,23.67
2016-11-29T04:08:22.579Z,23.71
2016-11-29T04:08:50.357Z,23.58
2016-11-29T04:09:18.045Z,23.74
2016-11-29T04:09:45.735Z,23.66
2016-11-29T04:10:13.456Z,23.7
2016-11-29T04:10:41.141Z,23.71
2016-11-29T04:11:08.878Z,23.67
2016-11-29T04:11:36.558Z,23.73
2016-11-29T04:12:04.252Z,23.7
2016-11-29T04:12:31.952Z,23.73
2016-11-29T04:12:59.644Z,23.77
2016-11-29T04:13:27.311Z,23.7
2016-11-29T04:13:55.018Z,23.71
2016-11-29T04:14:22.702Z,23.79
2016-11-29T04:14:50.411Z,23.73
2016-11-29T04:15:18.124Z,23.82
2016-11-29T04:15:45.840Z,23.71
2016-11-29T04:16:13.524Z,23.82
2016-11-29T04:16:41.197Z,23.73
2016-11-29T04:17:08.906Z,23.74
2016-11-29T04:17:36.585Z,23.82
2016-11-29T04:18:04.280Z,23.81
2016-11-29T04:18:32.087Z,23.81
2016-11-29T04:18:59.774Z,23.74
2016-11-29T04:19:27.471Z,23.85
2016-11-29T04:19:55.186Z,23.77
2016-11-29T04:20:22.911Z,23.88
2016-11-29T04:20:50.592Z,23.84
2016-11-29T04:21:18.268Z,23.88
2016-11-29T04:21:45.979Z,23.92
2016-11-29T04:22:13.763Z,23.99
2016-11-29T04:22:41.432Z,23.94
2016-11-29T04:23:09.321Z,23.94
2016-11-29T04:23:37.010Z,24.01
2016-11-29T04:24:04.777Z,23.96
2016-11-29T04:24:32.469Z,24.07
2016-11-29T04:25:00.146Z,24.04
2016-11-29T04:25:27.854Z,24.01
2016-11-29T04:25:55.600Z,24.04
2016-11-29T04:26:23.271Z,24.06
2016-11-29T04:26:50.980Z,24.04
2016-11-29T04:27:18.738Z,24.04
2016-11-29T04:27:46.400Z,24.04
2016-11-29T04:28:14.073Z,24.06
2016-11-29T04:28:41.756Z,24.04
2016-11-29T04:29:09.471Z,24.01
2016-11-29T04:29:37.142Z,24.06
2016-11-29T04:30:04.852Z,24.04
2016-11-29T04:30:32.553Z,24.04
2016-11-29T04:31:00.229Z,24.01
2016-11-29T04:31:28.037Z,24.03
2016-11-29T04:31:55.832Z,24.09
2016-11-29T04:32:23.550Z,23.94
2016-11-29T04:32:51.249Z,23.94
2016-11-29T04:33:18.969Z,23.82
2016-11-29T04:33:46.701Z,23.71
2016-11-29T04:34:14.385Z,23.74
2016-11-29T04:34:42.085Z,23.73
2016-11-29T04:35:09.784Z,23.62
2016-11-29T04:35:37.487Z,23.62
2016-11-29T04:36:05.176Z,23.56
2016-11-29T04:36:32.982Z,23.58
2016-11-29T04:37:00.681Z,23.4
2016-11-29T04:37:28.364Z,23.44
2016-11-29T04:37:56.079Z,23.28
2016-11-29T04:38:23.788Z,23.26
2016-11-29T04:38:51.512Z,23.18
2016-11-29T04:39:19.206Z,23.17
2016-11-29T04:39:46.872Z,23.07
2016-11-29T04:40:14.635Z,22.96
2016-11-29T04:40:42.331Z,22.83
2016-11-29T04:41:10.020Z,22.73
2016-11-29T04:41:37.717Z,22.7
2016-11-29T04:42:05.398Z,22.59
2016-11-29T04:42:33.084Z,22.31
2016-11-29T04:43:00.799Z,22.16
2016-11-29T04:43:28.512Z,22.16
2016-11-29T04:43:56.208Z,22.07
2016-11-29T04:44:23.876Z,22
2016-11-29T04:44:51.584Z,21.88
2016-11-29T04:45:19.279Z,21.81
2016-11-29T04:45:47.014Z,21.66
2016-11-29T04:46:14.690Z,21.62
2016-11-29T04:46:42.382Z,21.6
2016-11-29T04:47:10.082Z,21.54
2016-11-29T04:47:37.782Z,21.53
2016-11-29T04:48:05.480Z,21.48
2016-11-29T04:48:33.163Z,21.44
2016-11-29T04:49:00.841Z,21.51
2016-11-29T04:49:28.536Z,21.5
2016-11-29T04:49:56.230Z,21.45
2016-11-29T04:50:23.910Z,21.5
2016-11-29T04:50:51.589Z,21.47
2016-11-29T04:51:19.268Z,21.45
2016-11-29T04:51:46.971Z,21.38
2016-11-29T04:52:14.687Z,21.35
2016-11-29T04:52:42.375Z,21.41
2016-11-29T04:53:10.058Z,21.35
2016-11-29T04:53:37.733Z,21.43
2016-11-29T04:54:05.442Z,21.37
2016-11-29T04:54:33.177Z,21.37
2016-11-29T04:55:00.870Z,21.28
2016-11-29T04:55:28.550Z,21.3
2016-11-29T04:55:56.241Z,21.3
2016-11-29T04:56:23.965Z,21.3
2016-11-29T04:56:51.652Z,21.28
2016-11-29T04:57:19.369Z,21.22
2016-11-29T04:57:47.079Z,21.25
2016-11-29T04:58:14.797Z,21.17
2016-11-29T04:58:42.488Z,21.13
2016-11-29T04:59:10.156Z,21.17
2016-11-29T04:59:37.956Z,21.15
2016-11-29T05:00:05.616Z,21.17
2016-11-29T05:00:33.336Z,21.1
2016-11-29T05:01:01.076Z,21.07
2016-11-29T05:01:28.776Z,21.08
2016-11-29T05:01:56.453Z,21.04
2016-11-29T05:02:24.132Z,21.08
2016-11-29T05:02:51.928Z,20.96
2016-11-29T05:03:19.627Z,20.95
2016-11-29T05:03:47.311Z,20.86
2016-11-29T05:04:15.108Z,20.89
2016-11-29T05:04:42.834Z,20.88
2016-11-29T05:05:10.527Z,20.88
2016-11-29T05:05:38.227Z,20.85
2016-11-29T05:06:05.992Z,20.82
2016-11-29T05:06:33.688Z,20.75
2016-11-29T05:07:01.572Z,20.75
2016-11-29T05:07:29.465Z,20.74
2016-11-29T05:07:57.172Z,20.8
2016-11-29T05:08:24.863Z,20.74
2016-11-29T05:08:52.572Z,20.73
2016-11-29T05:09:20.271Z,20.74
2016-11-29T05:09:47.944Z,20.67
2016-11-29T05:10:15.625Z,20.66
2016-11-29T05:10:43.302Z,20.63
2016-11-29T05:11:11.078Z,20.6
2016-11-29T05:11:38.808Z,20.63
2016-11-29T05:12:06.473Z,20.59
2016-11-29T05:12:34.155Z,20.55
2016-11-29T05:13:01.855Z,20.56
2016-11-29T05:13:29.553Z,20.58
2016-11-29T05:13:57.254Z,20.53
2016-11-29T05:14:24.951Z,20.52
2016-11-29T05:14:52.647Z,20.53
2016-11-29T05:15:20.324Z,20.53
2016-11-29T05:15:48.043Z,20.48
2016-11-29T05:16:15.712Z,20.52
2016-11-29T05:16:43.412Z,20.53
2016-11-29T05:17:11.111Z,20.56
2016-11-29T05:17:38.800Z,20.56
2016-11-29T05:18:06.574Z,20.55
2016-11-29T05:18:34.257Z,20.59
2016-11-29T05:19:02.020Z,20.64
2016-11-29T05:19:29.717Z,20.6
2016-11-29T05:19:57.408Z,20.6
2016-11-29T05:20:25.086Z,20.68
2016-11-29T05:20:52.772Z,20.63
2016-11-29T05:21:20.544Z,20.67
2016-11-29T05:21:48.334Z,20.73
2016-11-29T05:22:16.006Z,20.74
2016-11-29T05:22:43.713Z,20.68
2016-11-29T05:23:11.384Z,20.71
2016-11-29T05:23:39.089Z,20.68
2016-11-29T05:24:06.789Z,20.7
2016-11-29T05:24:34.490Z,20.74
2016-11-29T05:25:02.194Z,20.71
2016-11-29T05:25:29.972Z,20.73
2016-11-29T05:25:57.648Z,20.67
2016-11-29T05:26:25.322Z,20.64
2016-11-29T05:26:53.019Z,20.64
2016-11-29T05:27:20.718Z,20.64
2016-11-29T05:27:48.427Z,20.7
2016-11-29T05:28:16.114Z,20.63
2016-11-29T05:28:43.823Z,20.68
2016-11-29T05:29:11.607Z,20.56
2016-11-29T05:29:39.295Z,20.7
2016-11-29T05:30:07.003Z,20.66
2016-11-29T05:30:34.708Z,20.78
2016-11-29T05:31:02.384Z,20.7
2016-11-29T05:31:30.089Z,20.75
2016-11-29T05:31:57.743Z,20.77
2016-11-29T05:32:25.454Z,20.75
2016-11-29T05:32:53.257Z,20.8
2016-11-29T05:33:20.945Z,20.75
2016-11-29T05:33:48.623Z,20.73
2016-11-29T05:34:16.293Z,20.8
2016-11-29T05:34:43.978Z,20.89
2016-11-29T05:35:11.654Z,20.9
2016-11-29T05:35:39.393Z,20.82
2016-11-29T05:36:07.091Z,20.9
2016-11-29T05:36:34.759Z,20.89
2016-11-29T05:37:02.485Z,20.85
2016-11-29T05:37:30.278Z,20.85
2016-11-29T05:37:57.973Z,20.8
2016-11-29T05:38:25.639Z,20.8
2016-11-29T05:38:53.430Z,20.86
2016-11-29T05:39:21.159Z,20.88
2016-11-29T05:39:48.915Z,20.86
2016-11-29T05:40:16.624Z,20.93
2016-11-29T05:40:44.343Z,20.83
2016-11-29T05:41:12.012Z,20.82
2016-11-29T05:41:39.711Z,20.9
2016-11-29T05:42:07.408Z,20.85
2016-11-29T05:42:35.065Z,20.83
2016-11-29T05:43:02.777Z,20.95
2016-11-29T05:43:30.470Z,20.89
2016-11-29T05:43:58.142Z,20.85
2016-11-29T05:44:25.930Z,20.9
2016-11-29T05:44:53.621Z,20.95
2016-11-29T05:45:21.436Z,20.88
2016-11-29T05:45:49.116Z,20.86
2016-11-29T05:46:16.795Z,20.86
2016-11-29T05:46:44.461Z,20.92
2016-11-29T05:47:12.161Z,20.9
2016-11-29T05:47:39.868Z,20.88
2016-11-29T05:48:07.543Z,20.85
2016-11-29T05:48:35.233Z,20.89
2016-11-29T05:49:02.904Z,20.9
2016-11-29T05:49:30.583Z,20.85
2016-11-29T05:49:58.271Z,20.88
2016-11-29T05:50:25.976Z,20.85
2016-11-29T05:50:53.691Z,20.82
2016-11-29T05:51:21.400Z,20.89
2016-11-29T05:51:49.092Z,20.74
2016-11-29T05:52:16.793Z,20.75
2016-11-29T05:52:44.519Z,20.88
2016-11-29T05:53:12.209Z,20.85
2016-11-29T05:53:39.866Z,20.8
2016-11-29T05:54:07.642Z,20.83
2016-11-29T05:54:35.430Z,20.7
2016-11-29T05:55:03.165Z,20.83
2016-11-29T05:55:30.842Z,20.73
2016-11-29T05:55:58.506Z,20.86
2016-11-29T05:56:26.195Z,20.83
2016-11-29T05:56:53.872Z,20.82
2016-11-29T05:57:21.589Z,20.83
2016-11-29T05:57:49.291Z,20.75